createdAt,value
2023-04-12T00:01:14.328Z,99428.31
2023-04-12T00:03:21.022Z,99431.84
2023-04-12T00:05:27.586Z,99429.91
2023-04-12T00:07:30.344Z,99435.28
2023-04-12T00:09:36.553Z,99429.81
2023-04-12T00:11:39.247Z,99431.44
2023-04-12T00:13:41.971Z,99424.34
2023-04-12T00:15:46.183Z,99429.34
2023-04-12T00:17:48.875Z,99439.75
2023-04-12T00:19:51.532Z,99427.69
2023-04-12T00:21:54.247Z,99429.41
2023-04-12T00:23:57.404Z,99427.50
2023-04-12T00:26:00.300Z,99432.13
2023-04-12T00:28:02.946Z,99434.38
2023-04-12T00:30:07.621Z,99435.78
2023-04-12T00:32:10.395Z,99428.19
2023-04-12T00:34:13.038Z,99429.31
2023-04-12T00:36:16.136Z,99425.78
2023-04-12T00:38:19.177Z,99426.88
2023-04-12T00:40:22.464Z,99426.38
2023-04-12T00:42:25.285Z,99434.56
2023-04-12T00:44:27.926Z,99438.41
2023-04-12T00:46:31.256Z,99436.78
2023-04-12T00:48:34.418Z,99430.50
2023-04-12T00:50:37.114Z,99434.38
2023-04-12T00:52:40.309Z,99433.47
2023-04-12T00:54:44.465Z,99437.50
2023-04-12T00:56:47.465Z,99435.38
2023-04-12T00:58:50.276Z,99438.41
2023-04-12T01:00:56.008Z,99436.78
2023-04-12T01:02:59.532Z,99425.66
2023-04-12T01:05:03.188Z,99430.09
2023-04-12T01:07:45.228Z,99430.38
2023-04-12T01:09:59.081Z,99425.53
2023-04-12T01:12:09.116Z,99425.03
2023-04-12T01:14:33.119Z,99425.81
2023-04-12T01:16:47.945Z,99428.56
2023-04-12T01:18:52.343Z,99426.66
2023-04-12T01:21:08.199Z,99425.25
2023-04-12T01:23:48.210Z,99435.84
2023-04-12T01:26:24.603Z,99427.97
2023-04-12T01:28:34.927Z,99433.22
2023-04-12T01:30:39.652Z,99441.94
2023-04-12T01:32:45.824Z,99431.81
2023-04-12T01:34:49.380Z,99432.41
2023-04-12T01:36:53.279Z,99429.97
2023-04-12T01:38:56.992Z,99428.88
2023-04-12T01:41:00.592Z,99438.16
2023-04-12T01:43:11.829Z,99439.59
2023-04-12T01:45:14.629Z,99421.44
2023-04-12T01:47:17.503Z,99438.88
2023-04-12T01:49:22.515Z,99438.34
2023-04-12T01:51:51.288Z,99436.75
2023-04-12T01:54:11.233Z,99433.78
2023-04-12T01:56:17.013Z,99436.00
2023-04-12T01:58:22.950Z,99443.09
2023-04-12T02:00:27.915Z,99437.13
2023-04-12T02:02:31.141Z,99439.06
2023-04-12T02:04:38.604Z,99439.25
2023-04-12T02:06:42.808Z,99435.41
2023-04-12T02:08:45.958Z,99436.44
2023-04-12T02:10:48.615Z,99428.47
2023-04-12T02:12:51.865Z,99439.00
2023-04-12T02:14:54.670Z,99428.25
2023-04-12T02:16:58.676Z,99434.53
2023-04-12T02:19:01.493Z,99428.78
2023-04-12T02:21:04.321Z,99435.84
2023-04-12T02:23:07.002Z,99432.03
2023-04-12T02:25:09.921Z,99435.78
2023-04-12T02:27:12.600Z,99427.78
2023-04-12T02:29:15.234Z,99431.81
2023-04-12T02:31:18.884Z,99417.38
2023-04-12T02:33:28.490Z,99421.63
2023-04-12T02:35:32.382Z,99428.94
2023-04-12T02:37:35.044Z,99431.03
2023-04-12T02:39:37.701Z,99430.44
2023-04-12T02:41:40.546Z,99432.47
2023-04-12T02:43:43.225Z,99431.47
2023-04-12T02:45:47.122Z,99432.47
2023-04-12T02:47:49.837Z,99432.66
2023-04-12T02:49:52.520Z,99435.81
2023-04-12T02:51:55.861Z,99436.53
2023-04-12T02:53:58.668Z,99427.69
2023-04-12T02:56:01.833Z,99433.84
2023-04-12T02:58:04.492Z,99443.88
2023-04-12T03:00:17.044Z,99444.91
2023-04-12T03:02:21.373Z,99446.72
2023-04-12T03:04:30.156Z,99445.00
2023-04-12T03:06:33.160Z,99442.75
2023-04-12T03:08:36.432Z,99440.50
2023-04-12T03:10:39.589Z,99442.31
2023-04-12T03:12:42.363Z,99446.06
2023-04-12T03:14:44.954Z,99455.31
2023-04-12T03:16:49.294Z,99453.06
2023-04-12T03:18:52.158Z,99459.53
2023-04-12T03:20:54.739Z,99453.13
2023-04-12T03:22:57.462Z,99450.59
2023-04-12T03:25:00.130Z,99461.16
2023-04-12T03:27:04.069Z,99462.13
2023-04-12T03:29:10.090Z,99465.88
2023-04-12T03:31:14.022Z,99466.59
2023-04-12T03:33:16.745Z,99468.41
2023-04-12T03:35:19.643Z,99466.97
2023-04-12T03:37:22.307Z,99479.75
2023-04-12T03:39:25.239Z,99479.91
2023-04-12T03:41:29.121Z,99472.50
2023-04-12T03:43:36.112Z,99479.50
2023-04-12T03:45:38.875Z,99475.63
2023-04-12T03:47:42.061Z,99475.00
2023-04-12T03:49:51.395Z,99485.34
2023-04-12T03:52:00.442Z,99477.31
2023-04-12T03:54:03.124Z,99467.16
2023-04-12T03:56:06.106Z,99477.88
2023-04-12T03:58:08.700Z,99470.66
2023-04-12T04:00:12.691Z,99459.84
2023-04-12T04:02:16.135Z,99462.00
2023-04-12T04:04:19.136Z,99463.47
2023-04-12T04:06:22.134Z,99471.25
2023-04-12T04:08:24.798Z,99471.94
2023-04-12T04:10:28.425Z,99476.13
2023-04-12T04:12:31.399Z,99477.00
2023-04-12T04:14:37.045Z,99489.28
2023-04-12T04:16:40.848Z,99484.78
2023-04-12T04:18:43.820Z,99479.47
2023-04-12T04:20:46.542Z,99473.97
2023-04-12T04:22:49.203Z,99472.22
2023-04-12T04:24:51.943Z,99473.53
2023-04-12T04:26:54.764Z,99480.50
2023-04-12T04:29:01.875Z,99484.69
2023-04-12T04:31:06.543Z,99485.38
2023-04-12T04:33:09.208Z,99477.31
2023-04-12T04:35:12.491Z,99481.22
2023-04-12T04:37:16.253Z,99475.56
2023-04-12T04:39:18.839Z,99480.78
2023-04-12T04:41:22.942Z,99478.97
2023-04-12T04:43:26.508Z,99480.47
2023-04-12T04:45:30.711Z,99477.41
2023-04-12T04:47:33.463Z,99476.13
2023-04-12T04:49:39.105Z,99474.03
2023-04-12T04:51:41.763Z,99483.94
2023-04-12T04:53:44.780Z,99488.13
2023-04-12T04:55:47.959Z,99487.66
2023-04-12T04:57:51.299Z,99493.47
2023-04-12T04:59:54.028Z,99491.88
2023-04-12T05:01:56.665Z,99489.59
2023-04-12T05:03:59.712Z,99494.00
2023-04-12T05:06:03.547Z,99494.78
2023-04-12T05:08:06.391Z,99492.53
2023-04-12T05:10:10.074Z,99490.75
2023-04-12T05:12:12.737Z,99482.50
2023-04-12T05:14:15.943Z,99494.47
2023-04-12T05:16:20.049Z,99489.44
2023-04-12T05:18:24.674Z,99490.56
2023-04-12T05:20:29.241Z,99486.03
2023-04-12T05:22:33.077Z,99491.03
2023-04-12T05:24:37.074Z,99498.00
2023-04-12T05:26:41.074Z,99498.78
2023-04-12T05:28:44.929Z,99498.44
2023-04-12T05:30:48.532Z,99497.63
2023-04-12T05:32:51.726Z,99490.78
2023-04-12T05:34:55.100Z,99489.97
2023-04-12T05:36:59.788Z,99497.56
2023-04-12T05:39:03.144Z,99505.31
2023-04-12T05:41:06.682Z,99502.38
2023-04-12T05:43:13.756Z,99508.66
2023-04-12T05:45:16.456Z,99508.22
2023-04-12T05:47:19.454Z,99506.22
2023-04-12T05:49:26.163Z,99506.38
2023-04-12T05:51:40.501Z,99504.72
2023-04-12T05:53:44.534Z,99505.59
2023-04-12T05:55:48.666Z,99505.88
2023-04-12T05:57:53.299Z,99495.50
2023-04-12T05:59:56.541Z,99505.31
2023-04-12T06:02:00.784Z,99499.97
2023-04-12T06:04:04.535Z,99497.00
2023-04-12T06:06:08.329Z,99494.16
2023-04-12T06:08:13.307Z,99510.66
2023-04-12T06:10:17.869Z,99499.78
2023-04-12T06:12:21.556Z,99508.97
2023-04-12T06:14:24.670Z,99505.88
2023-04-12T06:16:28.305Z,99503.28
2023-04-12T06:18:31.761Z,99503.06
2023-04-12T06:20:34.699Z,99502.16
2023-04-12T06:22:38.396Z,99508.75
2023-04-12T06:24:41.836Z,99508.69
2023-04-12T06:26:47.192Z,99507.34
2023-04-12T06:28:50.136Z,99509.72
2023-04-12T06:30:54.117Z,99502.63
2023-04-12T06:32:57.044Z,99513.44
2023-04-12T06:34:59.769Z,99516.44
2023-04-12T06:37:02.494Z,99511.91
2023-04-12T06:39:05.240Z,99508.81
2023-04-12T06:41:07.960Z,99507.44
2023-04-12T06:43:10.595Z,99506.88
2023-04-12T06:45:13.274Z,99507.34
2023-04-12T06:47:16.197Z,99507.94
2023-04-12T06:49:19.970Z,99500.00
2023-04-12T06:51:22.967Z,99508.88
2023-04-12T06:53:26.019Z,99496.56
2023-04-12T06:55:29.469Z,99501.19
2023-04-12T06:57:32.190Z,99496.94
2023-04-12T06:59:35.143Z,99494.06
2023-04-12T07:01:37.986Z,99502.34
2023-04-12T07:03:41.266Z,99507.28
2023-04-12T07:05:45.244Z,99472.09
2023-04-12T07:07:47.906Z,99507.31
2023-04-12T07:09:52.430Z,99510.66
2023-04-12T07:11:55.060Z,99508.81
2023-04-12T07:13:59.361Z,99496.38
2023-04-12T07:16:02.208Z,99509.50
2023-04-12T07:18:05.021Z,99510.06
2023-04-12T07:20:08.221Z,99505.47
2023-04-12T07:22:12.529Z,99508.22
2023-04-12T07:24:16.704Z,99511.88
2023-04-12T07:26:19.639Z,99510.06
2023-04-12T07:28:22.317Z,99506.50
2023-04-12T07:30:25.825Z,99503.84
2023-04-12T07:32:28.745Z,99493.38
2023-04-12T07:34:31.731Z,99495.91
2023-04-12T07:36:34.484Z,99497.28
2023-04-12T07:38:37.233Z,99495.56
2023-04-12T07:40:40.194Z,99493.50
2023-04-12T07:42:42.988Z,99492.44
2023-04-12T07:44:45.748Z,99500.50
2023-04-12T07:46:48.455Z,99495.06
2023-04-12T07:48:52.002Z,99497.84
2023-04-12T07:50:54.702Z,99492.44
2023-04-12T07:53:20.625Z,99500.47
2023-04-12T07:55:23.432Z,99500.75
2023-04-12T07:57:27.060Z,99496.41
2023-04-12T07:59:30.872Z,99495.22
2023-04-12T08:01:33.683Z,99498.97
2023-04-12T08:03:36.695Z,99498.25
2023-04-12T08:05:41.052Z,99495.59
2023-04-12T08:07:44.270Z,99490.16
2023-04-12T08:09:47.501Z,99501.53
2023-04-12T08:11:50.209Z,99493.72
2023-04-12T08:13:53.901Z,99488.94
2023-04-12T08:15:56.657Z,99489.66
2023-04-12T08:17:59.616Z,99486.84
2023-04-12T08:20:04.775Z,99483.09
2023-04-12T08:22:08.508Z,99479.25
2023-04-12T08:24:11.248Z,99477.53
2023-04-12T08:26:13.846Z,99483.81
2023-04-12T08:28:17.031Z,99481.78
2023-04-12T08:30:20.018Z,99485.75
2023-04-12T08:32:23.975Z,99479.66
2023-04-12T08:34:28.089Z,99478.28
2023-04-12T08:36:31.073Z,99484.50
2023-04-12T08:38:44.809Z,99484.97
2023-04-12T08:40:48.715Z,99475.63
2023-04-12T08:42:53.153Z,99482.53
2023-04-12T08:44:55.937Z,99471.97
2023-04-12T08:46:58.860Z,99472.22
2023-04-12T08:49:01.516Z,99468.28
2023-04-12T08:51:05.242Z,99457.75
2023-04-12T08:53:11.042Z,99471.41
2023-04-12T08:55:13.991Z,99465.13
2023-04-12T08:57:19.373Z,99465.28
2023-04-12T08:59:22.889Z,99456.13
2023-04-12T09:01:26.177Z,99455.63
2023-04-12T09:03:32.899Z,99451.03
2023-04-12T09:05:36.536Z,99450.88
2023-04-12T09:07:39.290Z,99456.34
2023-04-12T09:09:46.811Z,99447.63
2023-04-12T09:11:49.642Z,99448.69
2023-04-12T09:13:53.903Z,99446.59
2023-04-12T09:15:56.661Z,99442.66
2023-04-12T09:18:16.651Z,99443.91
2023-04-12T09:20:21.772Z,99439.75
2023-04-12T09:22:40.135Z,99440.81
2023-04-12T09:24:48.820Z,99432.78
2023-04-12T09:27:07.655Z,99430.19
2023-04-12T09:29:26.020Z,99425.72
2023-04-12T09:31:28.966Z,99425.09
2023-04-12T09:33:39.651Z,99429.56
2023-04-12T09:35:43.315Z,99427.69
2023-04-12T09:37:46.520Z,99417.06
2023-04-12T09:40:00.587Z,99419.03
2023-04-12T09:42:18.122Z,99409.81
2023-04-12T09:44:30.834Z,99411.22
2023-04-12T09:46:34.207Z,99417.47
2023-04-12T09:48:39.373Z,99406.06
2023-04-12T09:50:42.872Z,99408.13
2023-04-12T09:52:46.097Z,99409.97
2023-04-12T09:54:49.004Z,99403.72
2023-04-12T09:56:52.092Z,99411.06
2023-04-12T09:58:55.783Z,99412.78
2023-04-12T10:01:02.941Z,99404.19
2023-04-12T10:03:07.502Z,99401.06
2023-04-12T10:05:13.704Z,99405.34
2023-04-12T10:07:17.347Z,99406.25
2023-04-12T10:09:20.018Z,99399.06
2023-04-12T10:11:22.743Z,99399.06
2023-04-12T10:13:27.291Z,99395.56
2023-04-12T10:15:30.716Z,99389.28
2023-04-12T10:17:36.061Z,99389.00
2023-04-12T10:19:40.271Z,99388.28
2023-04-12T10:21:43.179Z,99393.31
2023-04-12T10:23:47.461Z,99383.63
2023-04-12T10:25:50.592Z,99386.13
2023-04-12T10:27:53.871Z,99387.75
2023-04-12T10:30:23.698Z,99385.66
2023-04-12T10:32:27.063Z,99382.41
2023-04-12T10:34:32.812Z,99389.34
2023-04-12T10:36:56.931Z,99383.13
2023-04-12T10:39:11.282Z,99384.84
2023-04-12T10:41:21.098Z,99377.22
2023-04-12T10:43:23.995Z,99376.31
2023-04-12T10:45:32.543Z,99385.09
2023-04-12T10:47:50.793Z,99378.59
2023-04-12T10:50:32.526Z,99377.16
2023-04-12T10:52:39.387Z,99373.06
2023-04-12T10:54:42.396Z,99376.22
2023-04-12T10:56:46.818Z,99366.13
2023-04-12T10:58:49.696Z,99376.28
2023-04-12T11:00:58.916Z,99362.16
2023-04-12T11:03:07.882Z,99366.66
2023-04-12T11:05:11.737Z,99359.97
2023-04-12T11:07:14.907Z,99362.09
2023-04-12T11:09:19.038Z,99357.69
2023-04-12T11:11:22.989Z,99358.19
2023-04-12T11:13:27.632Z,99352.97
2023-04-12T11:15:34.278Z,99351.94
2023-04-12T11:17:37.917Z,99347.56
2023-04-12T11:19:49.363Z,99341.16
2023-04-12T11:21:52.402Z,99343.63
2023-04-12T11:23:55.956Z,99338.41
2023-04-12T11:25:59.372Z,99331.91
2023-04-12T11:28:02.716Z,99329.41
2023-04-12T11:30:07.602Z,99323.91
2023-04-12T11:32:16.051Z,99330.63
2023-04-12T11:34:20.167Z,99330.44
2023-04-12T11:36:22.982Z,99334.22
2023-04-12T11:38:25.982Z,99332.00
2023-04-12T11:40:28.868Z,99322.66
2023-04-12T11:42:33.080Z,99320.38
2023-04-12T11:44:52.489Z,99331.13
2023-04-12T11:46:58.773Z,99323.66
2023-04-12T11:49:01.737Z,99308.56
2023-04-12T11:51:25.480Z,99308.66
2023-04-12T11:53:32.231Z,99310.94
2023-04-12T11:55:34.971Z,99296.09
2023-04-12T11:57:39.266Z,99298.88
2023-04-12T11:59:45.314Z,99301.19
2023-04-12T12:01:51.725Z,99295.00
2023-04-12T12:03:55.441Z,99294.16
2023-04-12T12:05:59.021Z,99293.47
2023-04-12T12:08:06.380Z,99295.59
2023-04-12T12:10:09.987Z,99290.94
2023-04-12T12:12:13.709Z,99300.13
2023-04-12T12:14:20.985Z,99289.75
2023-04-12T12:16:28.578Z,99290.97
2023-04-12T12:18:31.625Z,99281.34
2023-04-12T12:20:40.273Z,99285.75
2023-04-12T12:22:47.625Z,99280.97
2023-04-12T12:24:59.625Z,99278.19
2023-04-12T12:27:03.659Z,99268.22
2023-04-12T12:29:09.372Z,99274.19
2023-04-12T12:31:12.744Z,99265.34
2023-04-12T12:33:23.146Z,99272.84
2023-04-12T12:35:34.737Z,99270.44
2023-04-12T12:37:37.658Z,99266.41
2023-04-12T12:39:40.489Z,99269.88
2023-04-12T12:41:43.221Z,99265.44
2023-04-12T12:43:53.255Z,99260.59
2023-04-12T12:45:56.120Z,99257.59
2023-04-12T12:48:04.082Z,99246.88
2023-04-12T12:50:07.371Z,99254.03
2023-04-12T12:52:10.124Z,99251.34
2023-04-12T12:54:12.817Z,99240.16
2023-04-12T12:56:16.331Z,99242.19
2023-04-12T12:58:19.077Z,99238.94
2023-04-12T13:00:24.954Z,99232.44
2023-04-12T13:02:27.799Z,99247.47
2023-04-12T13:04:30.874Z,99240.53
2023-04-12T13:06:33.716Z,99245.84
2023-04-12T13:08:37.483Z,99247.22
2023-04-12T13:10:40.319Z,99241.56
2023-04-12T13:12:43.237Z,99248.66
2023-04-12T13:14:46.258Z,99238.03
2023-04-12T13:16:49.515Z,99231.84
2023-04-12T13:18:52.612Z,99239.75
2023-04-12T13:20:55.382Z,99241.44
2023-04-12T13:22:58.178Z,99231.13
2023-04-12T13:25:02.146Z,99228.44
2023-04-12T13:27:08.602Z,99229.53
2023-04-12T13:29:11.237Z,99220.88
2023-04-12T13:31:13.988Z,99226.13
2023-04-12T13:33:20.121Z,99225.41
2023-04-12T13:35:24.571Z,99234.31
2023-04-12T13:37:27.519Z,99220.44
2023-04-12T13:39:33.096Z,99229.03
2023-04-12T13:41:36.362Z,99222.84
2023-04-12T13:43:39.032Z,99222.50
2023-04-12T13:45:41.840Z,99218.59
2023-04-12T13:47:44.639Z,99215.41
2023-04-12T13:49:47.491Z,99220.97
2023-04-12T13:51:50.658Z,99215.41
2023-04-12T13:53:53.712Z,99223.66
2023-04-12T13:55:57.595Z,99218.44
2023-04-12T13:58:00.311Z,99221.66
2023-04-12T14:00:03.063Z,99228.91
2023-04-12T14:02:06.685Z,99232.03
2023-04-12T14:04:09.560Z,99231.84
2023-04-12T14:06:12.362Z,99229.28
2023-04-12T14:08:15.159Z,99230.78
2023-04-12T14:10:18.219Z,99226.66
2023-04-12T14:12:21.170Z,99228.06
2023-04-12T14:14:25.604Z,99230.75
2023-04-12T14:16:28.334Z,99223.09
2023-04-12T14:18:31.053Z,99223.31
2023-04-12T14:20:33.811Z,99226.97
2023-04-12T14:22:37.158Z,99225.81
2023-04-12T14:24:40.401Z,99221.88
2023-04-12T14:26:43.183Z,99222.78
2023-04-12T14:28:45.814Z,99211.75
2023-04-12T14:30:51.676Z,99223.91
2023-04-12T14:32:54.624Z,99213.88
2023-04-12T14:34:57.514Z,99223.91
2023-04-12T14:37:00.746Z,99212.41
2023-04-12T14:39:04.211Z,99208.94
2023-04-12T14:41:08.976Z,99215.03
2023-04-12T14:43:11.786Z,99209.38
2023-04-12T14:45:15.670Z,99206.91
2023-04-12T14:47:18.585Z,99204.59
2023-04-12T14:49:21.399Z,99209.13
2023-04-12T14:51:24.328Z,99207.16
2023-04-12T14:53:27.352Z,99213.94
2023-04-12T14:55:30.238Z,99211.97
2023-04-12T14:57:35.704Z,99207.56
2023-04-12T14:59:38.573Z,99213.94
2023-04-12T15:01:42.221Z,99207.56
2023-04-12T15:03:46.186Z,99211.56
2023-04-12T15:05:49.037Z,99204.38
2023-04-12T15:07:51.831Z,99209.91
2023-04-12T15:09:55.638Z,99204.31
2023-04-12T15:12:01.594Z,99208.66
2023-04-12T15:14:05.351Z,99216.16
2023-04-12T15:16:09.419Z,99210.75
2023-04-12T15:18:12.234Z,99215.34
2023-04-12T15:20:17.440Z,99217.94
2023-04-12T15:22:20.381Z,99209.84
2023-04-12T15:24:24.020Z,99213.78
2023-04-12T15:26:26.735Z,99210.47
2023-04-12T15:28:29.990Z,99215.47
2023-04-12T15:30:32.680Z,99216.72
2023-04-12T15:32:39.806Z,99220.56
2023-04-12T15:34:44.195Z,99214.84
2023-04-12T15:36:46.992Z,99209.91
2023-04-12T15:38:51.614Z,99212.81
2023-04-12T15:40:59.460Z,99214.88
2023-04-12T15:43:02.482Z,99218.66
2023-04-12T15:45:05.815Z,99214.81
2023-04-12T15:47:11.670Z,99220.47
2023-04-12T15:49:15.065Z,99218.00
2023-04-12T15:51:17.887Z,99217.47
2023-04-12T15:53:22.576Z,99220.78
2023-04-12T15:55:25.471Z,99221.84
2023-04-12T15:57:28.583Z,99221.72
2023-04-12T15:59:32.186Z,99222.28
2023-04-12T16:01:36.122Z,99236.41
2023-04-12T16:03:39.217Z,99213.06
2023-04-12T16:05:44.501Z,99220.13
2023-04-12T16:07:51.180Z,99228.66
2023-04-12T16:09:54.100Z,99229.19
2023-04-12T16:11:57.922Z,99233.06
2023-04-12T16:14:02.502Z,99232.91
2023-04-12T16:16:06.173Z,99220.88
2023-04-12T16:18:09.444Z,99224.28
2023-04-12T16:20:17.043Z,99221.72
2023-04-12T16:22:21.065Z,99229.50
2023-04-12T16:24:23.926Z,99221.03
2023-04-12T16:26:27.690Z,99226.47
2023-04-12T16:28:30.806Z,99234.59
2023-04-12T16:30:34.414Z,99230.13
2023-04-12T16:32:38.786Z,99233.25
2023-04-12T16:34:43.109Z,99231.16
2023-04-12T16:36:46.199Z,99238.88
2023-04-12T16:38:49.797Z,99232.47
2023-04-12T16:40:52.703Z,99238.53
2023-04-12T16:42:56.128Z,99234.06
2023-04-12T16:44:59.190Z,99241.00
2023-04-12T16:47:02.189Z,99237.28
2023-04-12T16:49:06.028Z,99234.03
2023-04-12T16:51:09.108Z,99236.25
2023-04-12T16:53:12.546Z,99231.34
2023-04-12T16:55:16.231Z,99236.78
2023-04-12T16:57:19.153Z,99240.63
2023-04-12T16:59:22.280Z,99240.84
2023-04-12T17:01:25.212Z,99233.28
2023-04-12T17:03:28.473Z,99243.88
2023-04-12T17:05:32.792Z,99230.78
2023-04-12T17:07:35.828Z,99241.38
2023-04-12T17:09:38.608Z,99231.38
2023-04-12T17:11:41.629Z,99234.06
2023-04-12T17:13:44.930Z,99245.31
2023-04-12T17:15:50.595Z,99238.09
2023-04-12T17:18:00.467Z,99244.31
2023-04-12T17:20:06.357Z,99240.22
2023-04-12T17:22:10.303Z,99249.31
2023-04-12T17:24:16.698Z,99237.59
2023-04-12T17:26:26.124Z,99240.00
2023-04-12T17:28:43.937Z,99247.03
2023-04-12T17:30:48.471Z,99214.88
2023-04-12T17:32:52.299Z,99241.66
2023-04-12T17:34:55.525Z,99232.91
2023-04-12T17:37:00.063Z,99235.47
2023-04-12T17:39:05.353Z,99232.13
2023-04-12T17:41:09.681Z,99234.81
2023-04-12T17:43:13.130Z,99238.25
2023-04-12T17:45:17.850Z,99240.09
2023-04-12T17:47:21.138Z,99232.53
2023-04-12T17:49:25.732Z,99238.72
2023-04-12T17:51:29.819Z,99237.00
2023-04-12T17:53:32.791Z,99233.69
2023-04-12T17:55:38.171Z,99234.38
2023-04-12T17:57:42.145Z,99227.47
2023-04-12T17:59:44.927Z,99230.91
2023-04-12T18:01:47.815Z,99226.78
2023-04-12T18:03:50.807Z,99231.38
2023-04-12T18:05:55.810Z,99227.25
2023-04-12T18:07:59.770Z,99220.69
2023-04-12T18:10:03.488Z,99230.22
2023-04-12T18:12:06.732Z,99232.88
2023-04-12T18:14:11.148Z,99226.09
2023-04-12T18:16:14.323Z,99230.81
2023-04-12T18:18:17.165Z,99233.09
2023-04-12T18:20:20.086Z,99232.31
2023-04-12T18:22:22.924Z,99234.94
2023-04-12T18:24:35.438Z,99239.97
2023-04-12T18:26:39.228Z,99241.47
2023-04-12T18:28:42.176Z,99234.69
2023-04-12T18:30:44.931Z,99240.22
2023-04-12T18:32:48.141Z,99238.81
2023-04-12T18:35:02.568Z,99239.50
2023-04-12T18:37:19.836Z,99229.41
2023-04-12T18:39:36.342Z,99236.28
2023-04-12T18:42:03.310Z,99233.38
2023-04-12T18:44:44.189Z,99232.00
2023-04-12T18:47:15.608Z,99237.38
2023-04-12T18:49:29.945Z,99228.06
2023-04-12T18:51:50.160Z,99232.06
2023-04-12T18:53:58.616Z,99227.91
2023-04-12T18:56:18.489Z,99240.63
2023-04-12T18:58:29.767Z,99229.22
2023-04-12T19:00:47.017Z,99238.84
2023-04-12T19:03:01.298Z,99234.31
2023-04-12T19:05:11.912Z,99233.69
2023-04-12T19:07:14.875Z,99228.41
2023-04-12T19:09:17.715Z,99227.13
2023-04-12T19:11:20.395Z,99224.25
2023-04-12T19:13:23.353Z,99228.81
2023-04-12T19:15:26.073Z,99234.53
2023-04-12T19:17:29.729Z,99234.38
2023-04-12T19:19:32.441Z,99238.13
2023-04-12T19:21:35.714Z,99239.59
2023-04-12T19:23:38.407Z,99231.72
2023-04-12T19:25:41.391Z,99233.63
2023-04-12T19:27:44.094Z,99237.38
2023-04-12T19:29:46.868Z,99236.09
2023-04-12T19:31:49.947Z,99230.81
2023-04-12T19:33:54.048Z,99229.06
2023-04-12T19:35:56.892Z,99234.09
2023-04-12T19:37:59.998Z,99234.75
2023-04-12T19:40:02.800Z,99231.41
2023-04-12T19:42:05.644Z,99232.69
2023-04-12T19:44:08.343Z,99240.47
2023-04-12T19:46:12.026Z,99239.19
2023-04-12T19:48:14.783Z,99229.66
2023-04-12T19:50:17.949Z,99234.31
2023-04-12T19:52:22.123Z,99239.38
2023-04-12T19:54:25.732Z,99238.91
2023-04-12T19:56:30.699Z,99242.78
2023-04-12T19:58:33.668Z,99226.78
2023-04-12T20:00:39.350Z,99235.03
2023-04-12T20:02:42.616Z,99231.00
2023-04-12T20:04:45.219Z,99220.41
2023-04-12T20:06:52.057Z,99232.34
2023-04-12T20:08:54.691Z,99229.78
2023-04-12T20:10:57.341Z,99233.97
2023-04-12T20:13:00.118Z,99239.03
2023-04-12T20:15:04.580Z,99242.91
2023-04-12T20:17:08.285Z,99241.63
2023-04-12T20:19:12.165Z,99234.53
2023-04-12T20:21:14.781Z,99238.72
2023-04-12T20:23:17.815Z,99243.75
2023-04-12T20:25:20.729Z,99242.13
2023-04-12T20:27:23.399Z,99239.25
2023-04-12T20:29:26.738Z,99242.97
2023-04-12T20:31:29.493Z,99234.75
2023-04-12T20:33:32.862Z,99232.63
2023-04-12T20:35:35.721Z,99234.94
2023-04-12T20:37:38.365Z,99239.94
2023-04-12T20:39:41.065Z,99232.34
2023-04-12T20:41:50.110Z,99230.25
2023-04-12T20:43:52.831Z,99234.47
2023-04-12T20:45:55.606Z,99230.13
2023-04-12T20:47:58.349Z,99231.56
2023-04-12T20:50:18.202Z,99231.91
2023-04-12T20:52:20.985Z,99227.22
2023-04-12T20:54:26.837Z,99224.28
2023-04-12T20:56:29.487Z,99226.91
2023-04-12T20:58:35.364Z,99233.06
2023-04-12T21:00:40.700Z,99231.44
2023-04-12T21:02:45.554Z,99229.66
2023-04-12T21:04:48.663Z,99226.41
2023-04-12T21:06:55.586Z,99226.75
2023-04-12T21:08:59.081Z,99224.00
2023-04-12T21:11:02.383Z,99221.25
2023-04-12T21:13:05.088Z,99232.88
2023-04-12T21:15:08.754Z,99211.88
2023-04-12T21:17:11.741Z,99223.03
2023-04-12T21:19:18.606Z,99228.03
2023-04-12T21:21:21.710Z,99219.69
2023-04-12T21:23:24.566Z,99229.19
2023-04-12T21:25:27.174Z,99227.56
2023-04-12T21:27:30.152Z,99214.50
2023-04-12T21:29:34.631Z,99226.59
2023-04-12T21:31:39.300Z,99226.13
2023-04-12T21:33:42.492Z,99213.53
2023-04-12T21:35:45.305Z,99219.69
2023-04-12T21:37:47.991Z,99207.06
2023-04-12T21:39:50.687Z,99211.28
2023-04-12T21:41:53.489Z,99205.00
2023-04-12T21:43:56.215Z,99205.31
2023-04-12T21:45:58.873Z,99213.88
2023-04-12T21:48:01.577Z,99202.41
2023-04-12T21:50:04.759Z,99208.22
2023-04-12T21:52:07.460Z,99213.22
2023-04-12T21:54:10.164Z,99192.72
2023-04-12T21:56:12.725Z,99207.28
2023-04-12T21:58:15.944Z,99188.38
2023-04-12T22:00:18.963Z,99189.50
2023-04-12T22:02:21.700Z,99189.50
2023-04-12T22:04:24.496Z,99191.13
2023-04-12T22:06:27.452Z,99176.75
2023-04-12T22:08:30.072Z,99185.16
2023-04-12T22:10:34.665Z,99179.34
2023-04-12T22:12:37.604Z,99187.91
2023-04-12T22:14:46.736Z,99171.44
2023-04-12T22:16:51.212Z,99179.66
2023-04-12T22:18:55.758Z,99171.13
2023-04-12T22:20:59.688Z,99174.84
2023-04-12T22:23:03.182Z,99182.09
2023-04-12T22:25:08.736Z,99173.06
2023-04-12T22:27:11.634Z,99168.69
2023-04-12T22:29:17.548Z,99167.91
2023-04-12T22:31:23.151Z,99167.41
2023-04-12T22:33:26.037Z,99166.59
2023-04-12T22:35:30.235Z,99162.91
2023-04-12T22:37:35.069Z,99163.69
2023-04-12T22:39:37.946Z,99159.66
2023-04-12T22:41:42.028Z,99165.16
2023-04-12T22:43:47.852Z,99157.09
2023-04-12T22:45:54.110Z,99146.59
2023-04-12T22:47:57.200Z,99149.84
2023-04-12T22:50:01.784Z,99147.09
2023-04-12T22:52:06.766Z,99149.31
2023-04-12T22:54:10.650Z,99145.78
2023-04-12T22:56:13.646Z,99139.66
2023-04-12T22:58:16.413Z,99145.59
2023-04-12T23:00:19.027Z,99152.72
2023-04-12T23:02:21.746Z,99148.81
2023-04-12T23:04:24.438Z,99147.72
2023-04-12T23:06:27.916Z,99150.94
2023-04-12T23:08:31.039Z,99141.06
2023-04-12T23:10:34.415Z,99139.31
2023-04-12T23:12:37.630Z,99143.81
2023-04-12T23:14:40.413Z,99139.66
2023-04-12T23:16:44.585Z,99125.28
2023-04-12T23:18:48.279Z,99126.28
2023-04-12T23:20:51.564Z,99121.78
2023-04-12T23:22:57.879Z,99131.78
2023-04-12T23:25:02.437Z,99123.56
2023-04-12T23:27:06.367Z,99131.13
2023-04-12T23:29:09.196Z,99132.91
2023-04-12T23:31:12.357Z,99124.53
2023-04-12T23:33:20.472Z,99129.03
2023-04-12T23:35:23.361Z,99130.81
2023-04-12T23:37:25.949Z,99129.22
2023-04-12T23:39:28.708Z,99121.97
2023-04-12T23:41:32.301Z,99127.44
2023-04-12T23:43:35.153Z,99123.72
2023-04-12T23:45:38.679Z,99120.50
2023-04-12T23:47:41.417Z,99110.50
2023-04-12T23:49:44.104Z,99111.63
2023-04-12T23:51:47.005Z,99104.38
2023-04-12T23:53:50.396Z,99110.66
2023-04-12T23:55:53.773Z,99100.69
2023-04-12T23:57:56.472Z,99101.63
2023-04-12T23:59:59.153Z,99103.06
